Cedar Bluff, VA (24609)

1:37 AM EDT on September 27, 2016 (GMT -0400)
KM4HDM - Richlands, Virginia | | Change Station

Elev 1972 ft 37.09 °N, 81.83 °W | Updated 1 second ago

Overcast
Overcast
64.6 °F
Feels Like 64.6 °F
N
0.0
Wind Variable Wind from West

Today
High -- | Low -- °F
--% Chance of Precip.
Yesterday
High -- | Low -- °F
Precip. -- in
Pressure 30.08 in
Visibility 0.8 miles
Clouds Overcast 300 ft
Dew Point 62 °F
Humidity 93%
Rainfall 0.02 in
Snow Depth Not available.
7:19 AM 7:15 PM
Waning Crescent, 14% visible
METAR KJFZ 270515Z AUTO 31003KT 3/4SM BR OVC003 18/18 A3008 RMK AO2 T01750175
Pressure 30.08 in
Visibility 0.8 miles
Clouds Overcast 300 ft
Dew Point 62 °F
Humidity 93%
Rainfall 0.02 in
Snow Depth Not available.
7:19 AM 7:15 PM
Waning Crescent, 14% visible
METAR KJFZ 270515Z AUTO 31003KT 3/4SM BR OVC003 18/18 A3008 RMK AO2 T01750175

10-Day Weather Forecast

Almanac

Astronomy

Sep. 27, 2016 Rise Set
Actual Time
Civil Twilight
Nautical Twilight
Astronomical Twilight
Moon
Length of Visible Light
Length of Day
Tomorrow will be .
, % of the Moon is Illuminated

Today's Extremes

State Highs State Lows

Community

WunderPhotos

Upload Photos

1,942,037 photos uploaded!

WunderBlog® & News

Nearby

Air Quality

  Air Quality AQ Index Pollutant
Not available.

Snow Depth

Station Depth Elevation

Earthquake Activity

City Distance Mag. Time & Date
Minimum magnitude displayed is 2.5.

Coastal Water Temperatures

Place Temperature

Stations

Nearby Weather Stations

Station Location Temp. Windchill Dew Point Humidity Wind Precip. Elev Updated Type
                   

Watches & Warnings

There are currently no watches in effect.